createdAt,value
2023-01-17T00:00:00.309Z,97870
2023-01-17T00:05:00.303Z,97900
2023-01-17T00:10:00.303Z,97880
2023-01-17T00:15:00.308Z,97890
2023-01-17T00:20:00.318Z,97890
2023-01-17T00:25:00.311Z,97910
2023-01-17T00:30:00.303Z,97910
2023-01-17T00:35:00.305Z,97920
2023-01-17T00:40:00.312Z,97920
2023-01-17T00:45:00.323Z,97970
2023-01-17T00:50:00.317Z,97940
2023-01-17T00:55:00.320Z,97950
2023-01-17T01:00:00.322Z,97960
2023-01-17T01:05:00.301Z,97970
2023-01-17T01:10:00.319Z,97980
2023-01-17T01:15:00.317Z,98000
2023-01-17T01:20:00.309Z,98010
2023-01-17T01:25:00.293Z,98040
2023-01-17T01:30:00.318Z,98050
2023-01-17T01:35:00.344Z,98040
2023-01-17T01:40:00.308Z,98080
2023-01-17T01:45:00.336Z,98030
2023-01-17T01:50:00.306Z,98040
2023-01-17T01:55:00.301Z,98070
2023-01-17T02:00:00.301Z,98090
2023-01-17T02:05:01.931Z,98100
2023-01-17T02:10:00.304Z,98090
2023-01-17T02:15:00.328Z,98120
2023-01-17T02:20:00.304Z,98110
2023-01-17T02:25:00.301Z,98110
2023-01-17T02:30:00.369Z,98120
2023-01-17T02:35:00.316Z,98130
2023-01-17T02:40:00.319Z,98130
2023-01-17T02:45:00.328Z,98140
2023-01-17T02:50:00.302Z,98130
2023-01-17T02:55:00.310Z,98190
2023-01-17T03:00:00.314Z,98180
2023-01-17T03:05:00.301Z,98180
2023-01-17T03:10:00.338Z,98190
2023-01-17T03:15:00.418Z,98200
2023-01-17T03:20:00.317Z,98210
2023-01-17T03:25:00.334Z,98200
2023-01-17T03:30:00.320Z,98200
2023-01-17T03:35:00.316Z,98210
2023-01-17T03:40:00.311Z,98230
2023-01-17T03:45:00.303Z,98210
2023-01-17T03:50:00.306Z,98220
2023-01-17T03:55:00.306Z,98210
2023-01-17T04:00:00.334Z,98230
2023-01-17T04:05:00.346Z,98230
2023-01-17T04:10:00.366Z,98230
2023-01-17T04:15:00.341Z,98250
2023-01-17T04:20:00.308Z,98250
2023-01-17T04:25:00.340Z,98240
2023-01-17T04:30:00.318Z,98270
2023-01-17T04:35:00.323Z,98260
2023-01-17T04:40:00.315Z,98280
2023-01-17T04:45:00.301Z,98280
2023-01-17T04:50:00.314Z,98260
2023-01-17T04:55:00.340Z,98240
2023-01-17T05:00:00.308Z,98240
2023-01-17T05:05:00.335Z,98270
2023-01-17T05:10:00.323Z,98290
2023-01-17T05:15:00.321Z,98280
2023-01-17T05:20:00.321Z,98270
2023-01-17T05:25:00.296Z,98300
2023-01-17T05:30:00.322Z,98280
2023-01-17T05:35:00.306Z,98290
2023-01-17T05:40:00.327Z,98270
2023-01-17T05:45:00.325Z,98290
2023-01-17T05:50:00.307Z,98320
2023-01-17T05:55:00.314Z,98310
2023-01-17T06:00:00.302Z,98310
2023-01-17T06:05:03.173Z,98330
2023-01-17T06:10:00.320Z,98290
2023-01-17T06:15:00.370Z,98340
2023-01-17T06:20:00.313Z,98330
2023-01-17T06:25:00.323Z,98310
2023-01-17T06:30:00.356Z,98310
2023-01-17T06:35:00.329Z,98340
2023-01-17T06:40:00.301Z,98330
2023-01-17T06:45:00.344Z,98330
2023-01-17T06:50:00.317Z,98350
2023-01-17T06:55:00.340Z,98350
2023-01-17T07:00:00.292Z,98370
2023-01-17T07:05:00.306Z,98360
2023-01-17T07:10:00.349Z,98360
2023-01-17T07:15:00.341Z,98370
2023-01-17T07:20:00.331Z,98370
2023-01-17T07:25:00.333Z,98380
2023-01-17T07:30:00.361Z,98380
2023-01-17T07:35:00.318Z,98380
2023-01-17T07:40:00.312Z,98380
2023-01-17T07:45:00.324Z,98380
2023-01-17T07:50:00.313Z,98380
2023-01-17T07:55:00.326Z,98360
2023-01-17T08:00:00.331Z,98360
2023-01-17T08:05:00.316Z,98380
2023-01-17T08:10:00.317Z,98380
2023-01-17T08:15:00.321Z,98400
2023-01-17T08:20:00.311Z,98390
2023-01-17T08:25:00.339Z,98390
2023-01-17T08:30:00.307Z,98400
2023-01-17T08:35:00.305Z,98410
2023-01-17T08:40:00.316Z,98400
2023-01-17T08:45:00.300Z,98410
2023-01-17T08:50:00.303Z,98410
2023-01-17T08:55:00.334Z,98430
2023-01-17T09:00:00.326Z,98420
2023-01-17T09:05:00.302Z,98430
2023-01-17T09:10:00.323Z,98400
2023-01-17T09:15:00.321Z,98450
2023-01-17T09:20:00.339Z,98450
2023-01-17T09:25:00.314Z,98440
2023-01-17T09:30:00.344Z,98440
2023-01-17T09:35:00.332Z,98450
2023-01-17T09:40:00.317Z,98450
2023-01-17T09:45:00.313Z,98470
2023-01-17T09:50:00.337Z,98460
2023-01-17T09:55:00.319Z,98480
2023-01-17T10:00:03.549Z,98480
2023-01-17T10:05:00.406Z,98470
2023-01-17T10:10:00.332Z,98490
2023-01-17T10:15:00.306Z,98500
2023-01-17T10:20:00.327Z,98490
2023-01-17T10:25:00.318Z,98500
2023-01-17T10:30:00.342Z,98500
2023-01-17T10:35:00.312Z,98520
2023-01-17T10:40:00.310Z,98520
2023-01-17T10:45:00.309Z,98520
2023-01-17T10:50:00.331Z,98510
2023-01-17T10:55:00.310Z,98520
2023-01-17T11:00:00.301Z,98500
2023-01-17T11:05:00.321Z,98510
2023-01-17T11:10:00.363Z,98500
2023-01-17T11:15:00.304Z,98520
2023-01-17T11:20:00.348Z,98500
2023-01-17T11:25:00.300Z,98490
2023-01-17T11:30:00.308Z,98490
2023-01-17T11:35:00.300Z,98490
2023-01-17T11:40:00.310Z,98490
2023-01-17T11:45:00.300Z,98500
2023-01-17T11:50:00.298Z,98500
2023-01-17T11:55:00.327Z,98500
2023-01-17T12:00:00.301Z,98490
2023-01-17T12:05:00.435Z,98520
2023-01-17T12:10:00.307Z,98480
2023-01-17T12:15:00.307Z,98480
2023-01-17T12:20:00.312Z,98480
2023-01-17T12:25:00.309Z,98470
2023-01-17T12:30:00.349Z,98460
2023-01-17T12:35:00.309Z,98470
2023-01-17T12:40:00.301Z,98480
2023-01-17T12:45:00.302Z,98450
2023-01-17T12:50:00.335Z,98470
2023-01-17T12:55:00.301Z,98440
2023-01-17T13:00:00.329Z,98460
2023-01-17T13:05:00.300Z,98470
2023-01-17T13:10:00.329Z,98470
2023-01-17T13:15:00.363Z,98460
2023-01-17T13:20:00.305Z,98470
2023-01-17T13:25:00.329Z,98450
2023-01-17T13:30:00.317Z,98470
2023-01-17T13:35:01.606Z,98470
2023-01-17T13:40:00.332Z,98460
2023-01-17T13:45:00.339Z,98470
2023-01-17T13:50:00.338Z,98460
2023-01-17T13:55:00.306Z,98470
2023-01-17T14:00:00.339Z,98480
2023-01-17T14:05:00.328Z,98490
2023-01-17T14:10:00.326Z,98470
2023-01-17T14:15:00.297Z,98490
2023-01-17T14:20:00.310Z,98490
2023-01-17T14:25:00.299Z,98490
2023-01-17T14:30:00.338Z,98460
2023-01-17T14:35:00.322Z,98500
2023-01-17T14:40:00.332Z,98490
2023-01-17T14:45:00.319Z,98520
2023-01-17T14:50:00.331Z,98510
2023-01-17T14:55:00.326Z,98520
2023-01-17T15:00:00.332Z,98520
2023-01-17T15:05:00.312Z,98490
2023-01-17T15:10:00.302Z,98490
2023-01-17T15:15:00.304Z,98500
2023-01-17T15:20:00.308Z,98510
2023-01-17T15:25:00.310Z,98500
2023-01-17T15:30:00.355Z,98530
2023-01-17T15:35:00.322Z,98530
2023-01-17T15:40:00.304Z,98530
2023-01-17T15:45:00.299Z,98530
2023-01-17T15:50:00.313Z,98530
2023-01-17T15:55:00.312Z,98530
2023-01-17T16:00:00.306Z,98560
2023-01-17T16:05:00.314Z,98530
2023-01-17T16:10:00.311Z,98550
2023-01-17T16:15:11.876Z,98530
2023-01-17T16:20:00.409Z,98530
2023-01-17T16:25:00.297Z,98550
2023-01-17T16:30:00.331Z,98550
2023-01-17T16:35:00.338Z,98550
2023-01-17T16:40:00.414Z,98540
2023-01-17T16:45:00.306Z,98560
2023-01-17T16:50:00.468Z,98550
2023-01-17T16:55:00.313Z,98560
2023-01-17T17:00:00.304Z,98580
2023-01-17T17:05:00.332Z,98570
2023-01-17T17:10:00.304Z,98600
2023-01-17T17:15:00.309Z,98600
2023-01-17T17:20:00.337Z,98600
2023-01-17T17:25:00.305Z,98580
2023-01-17T17:30:00.304Z,98590
2023-01-17T17:35:00.311Z,98610
2023-01-17T17:40:00.335Z,98610
2023-01-17T17:45:00.299Z,98610
2023-01-17T17:50:00.318Z,98620
2023-01-17T17:55:00.306Z,98620
2023-01-17T18:00:00.308Z,98630
2023-01-17T18:05:00.403Z,98600
2023-01-17T18:10:00.325Z,98640
2023-01-17T18:15:00.309Z,98650
2023-01-17T18:20:00.326Z,98630
2023-01-17T18:25:00.298Z,98630
2023-01-17T18:30:00.326Z,98660
2023-01-17T18:35:00.315Z,98660
2023-01-17T18:40:00.300Z,98660
2023-01-17T18:45:00.305Z,98660
2023-01-17T18:50:00.310Z,98660
2023-01-17T18:55:00.305Z,98680
2023-01-17T19:05:00.600Z,98670
2023-01-17T19:10:00.862Z,98680
2023-01-17T19:15:00.597Z,98670
2023-01-17T19:20:00.690Z,98690
2023-01-17T19:25:00.607Z,98690
2023-01-17T19:30:00.876Z,98700
2023-01-17T19:35:00.608Z,98690
2023-01-17T19:40:00.601Z,98720
2023-01-17T19:45:00.624Z,98710
2023-01-17T19:50:00.616Z,98720
2023-01-17T19:55:00.662Z,98720
2023-01-17T20:00:00.702Z,98710
2023-01-17T20:05:00.591Z,98720
2023-01-17T20:10:00.632Z,98690
2023-01-17T20:15:00.687Z,98700
2023-01-17T20:20:00.719Z,98710
2023-01-17T20:25:00.615Z,98700
2023-01-17T20:30:11.055Z,98720
2023-01-17T20:35:00.636Z,98690
2023-01-17T20:40:01.024Z,98710
2023-01-17T20:45:00.588Z,98700
2023-01-17T20:50:00.754Z,98710
2023-01-17T20:55:00.683Z,98710
2023-01-17T21:00:01.552Z,98690
2023-01-17T21:05:00.653Z,98700
2023-01-17T21:10:00.592Z,98720
2023-01-17T21:15:00.641Z,98700
2023-01-17T21:20:00.672Z,98720
2023-01-17T21:25:00.636Z,98720
2023-01-17T21:30:00.658Z,98730
2023-01-17T21:35:00.620Z,98740
2023-01-17T21:40:00.630Z,98730
2023-01-17T21:45:00.587Z,98740
2023-01-17T21:50:00.675Z,98740
2023-01-17T21:55:00.597Z,98750
2023-01-17T22:00:00.759Z,98760
2023-01-17T22:05:00.840Z,98740
2023-01-17T22:10:00.778Z,98740
2023-01-17T22:15:01.124Z,98760
2023-01-17T22:20:00.602Z,98770
2023-01-17T22:25:00.608Z,98750
2023-01-17T22:30:00.623Z,98760
2023-01-17T22:35:00.613Z,98780
2023-01-17T22:40:00.609Z,98780
2023-01-17T22:45:00.675Z,98760
2023-01-17T22:50:00.860Z,98780
2023-01-17T22:55:00.636Z,98780
2023-01-17T23:00:00.615Z,98780
2023-01-17T23:05:00.598Z,98790
2023-01-17T23:10:01.351Z,98790
2023-01-17T23:15:00.589Z,98780
2023-01-17T23:20:00.591Z,98780
2023-01-17T23:25:00.611Z,98780
2023-01-17T23:30:00.585Z,98810
2023-01-17T23:35:00.810Z,98790
2023-01-17T23:40:00.722Z,98800
2023-01-17T23:45:00.624Z,98790
2023-01-17T23:50:00.693Z,98770
2023-01-17T23:55:00.587Z,98810
